Time;durP1;ratioP1;P1;durP2;ratioP2;P2;SDS_P1;SDS_P2;PMS_P1;PMS_P2;Temp;Humidity;BMP_temperature;BMP_pressure;BME280_temperature;BME280_humidity;BME280_pressure;Samples;Min_cycle;Max_cycle;Signal;HPM_P1;HPM_P2
2024/03/04 00:02:15;;;;;;;19.70;14.33;;;;;;;;;;4993469;28;20446;-87
2024/03/04 00:04:55;;;;;;;23.80;15.47;;;;;;;;;;4985706;28;20476;-88
2024/03/04 00:07:57;;;;;;;20.67;15.27;;;;;;;;;;4986373;28;20460;-86
2024/03/04 00:10:30;;;;;;;21.00;13.70;;;;;;;;;;4990856;28;20502;-89
2024/03/04 00:13:03;;;;;;;21.47;14.97;;;;;;;;;;4976414;28;20472;-87
2024/03/04 00:15:47;;;;;;;20.60;14.63;;;;;;;;;;4988971;28;20467;-88
2024/03/04 00:18:30;;;;;;;19.80;13.87;;;;;;;;;;4977522;28;20473;-88
2024/03/04 00:21:05;;;;;;;21.37;14.80;;;;;;;;;;4985051;28;20470;-86
2024/03/04 00:26:33;;;;;;;24.50;16.30;;;;;;;;;;4984736;28;20887;-87
2024/03/04 00:29:08;;;;;;;20.87;15.90;;;;;;;;;;4978927;28;20592;-88
2024/03/04 00:31:44;;;;;;;21.97;15.50;;;;;;;;;;4999930;28;20496;-84
2024/03/04 00:34:24;;;;;;;23.40;15.93;;;;;;;;;;4993599;28;20484;-87
2024/03/04 00:36:57;;;;;;;23.90;16.73;;;;;;;;;;4982104;28;20452;-88
2024/03/04 00:39:45;;;;;;;23.73;15.80;;;;;;;;;;4982376;28;20535;-88
2024/03/04 00:42:27;;;;;;;24.30;16.60;;;;;;;;;;4970865;28;20463;-87
2024/03/04 00:45:02;;;;;;;24.23;17.33;;;;;;;;;;4984329;28;20471;-87
2024/03/04 00:47:43;;;;;;;25.30;17.50;;;;;;;;;;4994253;28;20440;-88
2024/03/04 00:50:32;;;;;;;21.17;15.33;;;;;;;;;;4995608;28;20448;-89
2024/03/04 00:53:37;;;;;;;28.50;16.60;;;;;;;;;;4986417;28;20484;-87
2024/03/04 00:56:14;;;;;;;25.67;16.70;;;;;;;;;;4988123;28;20448;-87
2024/03/04 00:58:51;;;;;;;28.50;16.90;;;;;;;;;;4987483;28;20902;-87
2024/03/04 01:04:36;;;;;;;24.10;16.23;;;;;;;;;;4981270;28;20513;-87
2024/03/04 01:07:06;;;;;;;28.17;18.30;;;;;;;;;;5006293;28;20482;-88
2024/03/04 01:09:35;;;;;;;24.77;15.97;;;;;;;;;;4990139;28;20463;-86
2024/03/04 01:12:24;;;;;;;31.93;17.33;;;;;;;;;;4984261;28;20448;-90
2024/03/04 01:15:08;;;;;;;28.50;18.03;;;;;;;;;;4994432;28;20464;-87
2024/03/04 01:17:52;;;;;;;26.37;17.90;;;;;;;;;;4983561;28;20454;-88
2024/03/04 01:20:26;;;;;;;27.80;18.50;;;;;;;;;;4987501;28;20475;-87
2024/03/04 01:23:16;;;;;;;27.63;17.80;;;;;;;;;;5005490;28;20452;-87
2024/03/04 01:26:05;;;;;;;25.60;18.47;;;;;;;;;;4980574;28;20465;-88
2024/03/04 01:28:49;;;;;;;28.10;18.00;;;;;;;;;;4984243;28;20515;-88
2024/03/04 01:31:21;;;;;;;28.90;18.47;;;;;;;;;;4986164;28;20479;-85
2024/03/04 01:33:57;;;;;;;27.80;16.83;;;;;;;;;;4977588;28;21125;-86
2024/03/04 01:36:30;;;;;;;24.70;18.20;;;;;;;;;;4985558;28;20503;-87
2024/03/04 01:39:03;;;;;;;28.53;18.73;;;;;;;;;;4984438;28;20456;-88
2024/03/04 01:41:36;;;;;;;30.73;17.03;;;;;;;;;;4981340;28;20475;-88
2024/03/04 01:44:07;;;;;;;30.80;18.20;;;;;;;;;;4978363;28;20491;-89
2024/03/04 01:46:45;;;;;;;27.10;18.20;;;;;;;;;;4986700;28;20445;-87
2024/03/04 01:49:23;;;;;;;27.23;17.53;;;;;;;;;;4985992;28;20512;-87
2024/03/04 01:51:53;;;;;;;26.80;15.63;;;;;;;;;;4989814;28;20518;-87
2024/03/04 01:54:28;;;;;;;27.17;17.40;;;;;;;;;;4995494;28;20458;-88
2024/03/04 01:57:04;;;;;;;30.30;16.00;;;;;;;;;;4996872;28;20492;-89
2024/03/04 01:59:36;;;;;;;28.93;18.30;;;;;;;;;;4997359;28;20483;-87
2024/03/04 02:02:11;;;;;;;27.23;16.33;;;;;;;;;;4987254;28;20444;-89
2024/03/04 02:04:49;;;;;;;29.73;17.77;;;;;;;;;;4992912;28;20472;-89
2024/03/04 02:07:22;;;;;;;31.30;19.00;;;;;;;;;;4984987;28;20448;-88
2024/03/04 02:10:06;;;;;;;30.03;19.10;;;;;;;;;;4986833;28;20448;-87
2024/03/04 02:12:42;;;;;;;30.30;19.93;;;;;;;;;;4979868;28;20480;-89
2024/03/04 02:15:47;;;;;;;30.13;18.10;;;;;;;;;;4994066;28;20468;-88
2024/03/04 02:18:20;;;;;;;29.37;16.63;;;;;;;;;;4986204;28;20467;-88
2024/03/04 02:21:03;;;;;;;29.93;19.30;;;;;;;;;;4978926;28;20448;-88
2024/03/04 02:23:39;;;;;;;31.37;18.97;;;;;;;;;;4982938;28;20460;-87
2024/03/04 02:26:14;;;;;;;29.43;18.00;;;;;;;;;;4987322;28;20491;-88
2024/03/04 02:29:05;;;;;;;30.17;18.93;;;;;;;;;;4994338;28;20436;-86
2024/03/04 02:31:37;;;;;;;31.40;19.33;;;;;;;;;;4982432;28;20456;-86
2024/03/04 02:34:36;;;;;;;28.63;19.37;;;;;;;;;;4977834;28;20507;-87
2024/03/04 02:37:08;;;;;;;29.83;19.60;;;;;;;;;;4987548;28;20456;-88
2024/03/04 02:39:44;;;;;;;35.67;19.60;;;;;;;;;;4988381;28;20448;-87
2024/03/04 02:42:21;;;;;;;32.40;20.00;;;;;;;;;;4984277;28;20824;-87
2024/03/04 02:44:53;;;;;;;33.53;20.97;;;;;;;;;;4981918;28;20547;-87
2024/03/04 02:47:29;;;;;;;36.00;21.93;;;;;;;;;;4986231;28;20467;-86
2024/03/04 02:49:59;;;;;;;33.97;21.50;;;;;;;;;;4979346;28;20487;-87
2024/03/04 02:52:37;;;;;;;33.03;22.07;;;;;;;;;;4986752;28;20484;-88
2024/03/04 02:55:08;;;;;;;39.43;23.20;;;;;;;;;;4987492;28;20471;-88
2024/03/04 02:57:38;;;;;;;31.00;22.53;;;;;;;;;;4987424;28;21045;-87
2024/03/04 03:00:10;;;;;;;35.50;22.23;;;;;;;;;;4986755;28;20458;-86
2024/03/04 03:02:40;;;;;;;32.67;22.30;;;;;;;;;;4982054;28;20482;-88
2024/03/04 03:05:15;;;;;;;40.30;21.30;;;;;;;;;;4990429;28;20475;-86
2024/03/04 03:07:45;;;;;;;31.50;20.67;;;;;;;;;;4984392;28;20491;-86
2024/03/04 03:10:16;;;;;;;32.13;18.90;;;;;;;;;;4974995;28;20483;-88
2024/03/04 03:12:44;;;;;;;27.87;20.07;;;;;;;;;;4984515;28;20487;-87
2024/03/04 03:15:20;;;;;;;23.60;15.90;;;;;;;;;;4984545;28;20492;-88
2024/03/04 03:18:06;;;;;;;27.33;17.10;;;;;;;;;;4987532;28;20492;-87
2024/03/04 03:20:42;;;;;;;25.40;17.83;;;;;;;;;;4983013;28;20440;-87
2024/03/04 03:26:01;;;;;;;31.73;21.27;;;;;;;;;;4997563;28;20480;-89
2024/03/04 03:28:40;;;;;;;26.17;19.03;;;;;;;;;;5207021;23;20558;-87
2024/03/04 03:31:13;;;;;;;33.20;20.60;;;;;;;;;;4995288;28;20444;-87
2024/03/04 03:33:49;;;;;;;34.27;20.10;;;;;;;;;;4996561;28;20488;-86
2024/03/04 03:36:24;;;;;;;28.77;21.20;;;;;;;;;;4995695;28;20462;-87
2024/03/04 03:39:23;;;;;;;32.37;20.27;;;;;;;;;;5000371;28;20455;-86
2024/03/04 03:41:55;;;;;;;34.17;20.20;;;;;;;;;;4993635;28;20451;-87
2024/03/04 03:44:33;;;;;;;33.73;20.20;;;;;;;;;;4993215;28;21007;-87
2024/03/04 03:47:16;;;;;;;37.90;20.93;;;;;;;;;;4991739;28;20456;-87
2024/03/04 03:49:54;;;;;;;27.30;18.60;;;;;;;;;;4993158;28;20470;-86
2024/03/04 03:52:31;;;;;;;33.90;21.07;;;;;;;;;;4987670;28;20590;-86
2024/03/04 03:55:13;;;;;;;29.60;18.10;;;;;;;;;;4984064;28;20487;-86
2024/03/04 03:57:57;;;;;;;;;;;;;;;;;;;;;
2024/03/04 04:00:27;;;;;;;26.30;18.63;;;;;;;;;;4985367;28;20596;-90
2024/03/04 04:03:13;;;;;;;26.80;18.27;;;;;;;;;;4998991;28;20431;-88
2024/03/04 04:05:51;;;;;;;28.57;19.20;;;;;;;;;;4998118;28;20468;-88
2024/03/04 04:08:24;;;;;;;24.33;17.90;;;;;;;;;;4995855;28;20448;-88
2024/03/04 04:10:54;;;;;;;25.47;18.23;;;;;;;;;;4996610;28;20455;-87
2024/03/04 04:13:32;;;;;;;25.67;18.30;;;;;;;;;;4993711;28;20468;-88
2024/03/04 04:16:26;;;;;;;25.77;17.73;;;;;;;;;;5001274;28;20486;-89
2024/03/04 04:19:09;;;;;;;24.40;17.30;;;;;;;;;;4998602;28;20507;-89
2024/03/04 04:21:49;;;;;;;28.43;18.47;;;;;;;;;;4969554;28;20480;-89
2024/03/04 04:24:28;;;;;;;34.70;18.87;;;;;;;;;;4989203;28;20495;-88
2024/03/04 04:27:12;;;;;;;28.30;18.97;;;;;;;;;;4985915;28;20564;-90
2024/03/04 04:30:09;;;;;;;32.93;18.70;;;;;;;;;;4994207;28;20463;-89
2024/03/04 04:32:49;;;;;;;27.90;18.43;;;;;;;;;;5018956;28;20483;-90
2024/03/04 04:35:29;;;;;;;27.17;18.00;;;;;;;;;;4994632;28;20482;-89
2024/03/04 04:38:09;;;;;;;24.63;17.53;;;;;;;;;;4996156;28;20448;-90
2024/03/04 04:41:02;;;;;;;27.13;17.90;;;;;;;;;;4990572;28;20452;-89
2024/03/04 04:57:11;;;;;;;28.83;17.50;;;;;;;;;;5199273;23;20499;-87
2024/03/04 04:59:57;;;;;;;30.97;17.60;;;;;;;;;;5017046;28;20541;-89
2024/03/04 05:02:35;;;;;;;26.50;18.40;;;;;;;;;;5016948;28;20457;-89
2024/03/04 05:05:42;;;;;;;;;;;;;;;;;;;;;
2024/03/04 05:19:43;;;;;;;23.10;17.77;;;;;;;;;;4995863;28;20535;-88
2024/03/04 05:22:51;;;;;;;30.90;17.17;;;;;;;;;;4995491;28;20518;-90
2024/03/04 05:25:30;;;;;;;24.43;16.27;;;;;;;;;;4994375;28;20460;-90
2024/03/04 05:28:04;;;;;;;26.87;16.93;;;;;;;;;;4996563;28;20467;-89
2024/03/04 05:30:43;;;;;;;27.87;17.77;;;;;;;;;;4995547;28;21295;-88
2024/03/04 05:33:33;;;;;;;27.30;16.93;;;;;;;;;;4997529;28;20492;-90
2024/03/04 05:38:51;;;;;;;24.33;16.77;;;;;;;;;;4982088;28;20473;-88
2024/03/04 05:44:52;;;;;;;25.73;16.40;;;;;;;;;;5109653;23;20466;-87
2024/03/04 05:47:19;;;;;;;22.87;14.63;;;;;;;;;;5010578;28;20522;-88
2024/03/04 06:06:21;;;;;;;11.90;9.43;;;;;;;;;;4988528;28;20467;-89
2024/03/04 06:09:38;;;;;;;13.03;9.77;;;;;;;;;;5000062;28;20461;-88
2024/03/04 06:12:11;;;;;;;14.50;10.43;;;;;;;;;;5006229;28;20474;-88
2024/03/04 06:14:56;;;;;;;15.07;10.10;;;;;;;;;;4988572;28;20472;-88
2024/03/04 06:23:53;;;;;;;14.83;9.13;;;;;;;;;;4932565;29;20502;-89
2024/03/04 06:26:55;;;;;;;13.83;8.53;;;;;;;;;;4919720;29;20459;-87
2024/03/04 06:29:54;;;;;;;12.73;9.53;;;;;;;;;;4935103;29;20442;-88
2024/03/04 06:36:34;;;;;;;14.17;9.30;;;;;;;;;;4869353;29;20511;-88
2024/03/04 06:39:27;;;;;;;12.13;8.70;;;;;;;;;;4926185;28;20426;-88
2024/03/04 06:42:02;;;;;;;9.60;8.10;;;;;;;;;;4936052;29;20438;-87
2024/03/04 06:44:43;;;;;;;12.33;8.10;;;;;;;;;;4939472;29;20512;-90
2024/03/04 06:47:25;;;;;;;9.70;6.80;;;;;;;;;;4973441;28;20436;-89
2024/03/04 06:49:58;;;;;;;8.83;6.93;;;;;;;;;;5007397;28;20523;-89
2024/03/04 06:52:52;;;;;;;9.00;6.43;;;;;;;;;;4987841;28;20439;-90
2024/03/04 06:56:05;;;;;;;12.30;6.70;;;;;;;;;;4977992;28;20486;-88
2024/03/04 06:59:17;;;;;;;;;;;;;;;;;;;;;
2024/03/04 07:02:21;;;;;;;9.37;6.03;;;;;;;;;;4976827;28;20447;-88
2024/03/04 07:07:44;;;;;;;8.50;5.80;;;;;;;;;;5098349;23;20482;-89
2024/03/04 07:10:42;;;;;;;9.20;6.63;;;;;;;;;;5035046;28;20455;-88
2024/03/04 07:13:15;;;;;;;6.93;5.80;;;;;;;;;;5030756;28;20465;-90
2024/03/04 07:16:11;;;;;;;9.63;6.17;;;;;;;;;;5035930;28;20521;-91
2024/03/04 07:35:30;;;;;;;9.37;6.60;;;;;;;;;;4992026;28;20476;-87
2024/03/04 07:38:10;;;;;;;7.00;6.20;;;;;;;;;;4988162;28;20490;-90
2024/03/04 07:41:02;;;;;;;14.13;7.33;;;;;;;;;;4989753;28;20486;-89
2024/03/04 07:43:57;;;;;;;8.60;6.27;;;;;;;;;;4996471;28;20444;-88
2024/03/04 07:47:00;;;;;;;9.40;7.27;;;;;;;;;;4998009;28;20436;-90
2024/03/04 07:50:15;;;;;;;7.00;5.47;;;;;;;;;;4990159;28;20424;-90
2024/03/04 07:56:24;;;;;;;;;;;;;;;;;;;;;
2024/03/04 07:59:21;;;;;;;6.77;5.70;;;;;;;;;;5040273;28;20438;-88
2024/03/04 08:02:08;;;;;;;;;;;;;;;;;;;;;
2024/03/04 08:04:56;;;;;;;7.70;5.70;;;;;;;;;;5051108;23;20498;-90
2024/03/04 08:07:51;;;;;;;5.93;4.60;;;;;;;;;;5004611;28;20466;-89
2024/03/04 08:10:42;;;;;;;5.80;4.90;;;;;;;;;;5022488;28;20467;-89
2024/03/04 08:13:31;;;;;;;8.30;5.03;;;;;;;;;;5009214;28;20475;-86
2024/03/04 08:16:33;;;;;;;5.93;5.20;;;;;;;;;;4974333;28;20483;-87
2024/03/04 08:19:30;;;;;;;7.57;5.10;;;;;;;;;;4973080;28;20503;-89
2024/03/04 08:25:03;;;;;;;7.80;5.10;;;;;;;;;;4984179;28;20472;-89
2024/03/04 08:27:55;;;;;;;8.87;6.03;;;;;;;;;;4986154;28;20435;-89
2024/03/04 08:30:54;;;;;;;9.67;6.00;;;;;;;;;;4988851;28;20407;-87
2024/03/04 08:33:27;;;;;;;7.43;6.60;;;;;;;;;;4982037;28;20511;-87
2024/03/04 08:36:21;;;;;;;9.40;6.20;;;;;;;;;;4985071;28;20428;-88
2024/03/04 08:39:16;;;;;;;7.43;5.20;;;;;;;;;;4972643;28;20448;-89
2024/03/04 08:42:03;;;;;;;5.50;5.00;;;;;;;;;;5001761;28;20436;-89
2024/03/04 08:44:33;;;;;;;9.53;6.80;;;;;;;;;;4987387;28;20480;-89
2024/03/04 08:47:13;;;;;;;10.77;6.97;;;;;;;;;;4982759;28;20528;-90
2024/03/04 08:49:42;;;;;;;6.37;5.27;;;;;;;;;;4993047;28;20463;-88
2024/03/04 08:52:13;;;;;;;6.87;6.00;;;;;;;;;;4987879;28;20448;-88
2024/03/04 08:54:46;;;;;;;6.77;5.70;;;;;;;;;;4975617;28;20482;-88
2024/03/04 08:57:14;;;;;;;8.47;5.43;;;;;;;;;;4981426;28;20453;-89
2024/03/04 08:59:50;;;;;;;7.00;5.30;;;;;;;;;;4981144;28;20456;-88
2024/03/04 09:02:34;;;;;;;7.67;5.17;;;;;;;;;;4969224;28;20453;-87
2024/03/04 09:05:11;;;;;;;6.00;5.40;;;;;;;;;;4979634;28;20491;-88
2024/03/04 09:07:40;;;;;;;12.77;7.57;;;;;;;;;;4984596;28;20451;-90
2024/03/04 09:10:16;;;;;;;8.03;5.20;;;;;;;;;;4985296;28;20466;-87
2024/03/04 09:13:37;;;;;;;7.60;5.97;;;;;;;;;;4988303;28;20528;-88
2024/03/04 09:16:29;;;;;;;9.57;6.03;;;;;;;;;;4981763;28;20470;-88
2024/03/04 09:19:05;;;;;;;8.30;5.53;;;;;;;;;;4982056;28;20455;-88
2024/03/04 09:24:49;;;;;;;9.67;5.70;;;;;;;;;;4980702;28;20461;-89
2024/03/04 09:27:36;;;;;;;6.83;5.67;;;;;;;;;;4979058;28;20458;-88
2024/03/04 09:30:35;;;;;;;6.63;5.70;;;;;;;;;;4992650;28;20528;-89
2024/03/04 09:33:17;;;;;;;6.30;5.50;;;;;;;;;;5132821;23;20515;-87
2024/03/04 09:36:00;;;;;;;;;;;;;;;;;;;;;
2024/03/04 09:38:38;;;;;;;12.50;6.00;;;;;;;;;;4986118;28;20469;-89
2024/03/04 09:41:18;;;;;;;5.13;4.33;;;;;;;;;;4999697;28;20463;-91
2024/03/04 09:44:05;;;;;;;5.47;4.73;;;;;;;;;;5008646;23;20468;-88
2024/03/04 09:46:51;;;;;;;6.20;4.60;;;;;;;;;;4988921;28;20452;-89
2024/03/04 09:49:32;;;;;;;6.77;5.50;;;;;;;;;;4983978;28;20443;-86
2024/03/04 09:55:32;;;;;;;8.00;6.50;;;;;;;;;;5017805;23;20495;-88
2024/03/04 09:58:12;;;;;;;6.80;5.40;;;;;;;;;;5003978;28;20478;-88
2024/03/04 10:00:57;;;;;;;10.60;5.47;;;;;;;;;;5002851;28;20580;-87
2024/03/04 10:03:54;;;;;;;5.93;5.20;;;;;;;;;;4994354;28;20459;-89
2024/03/04 10:06:32;;;;;;;6.30;5.70;;;;;;;;;;4981289;28;20445;-87
2024/03/04 10:09:35;;;;;;;;;;;;;;;;;;;;;
2024/03/04 10:12:22;;;;;;;7.00;6.20;;;;;;;;;;4981475;28;20468;-88
2024/03/04 10:18:17;;;;;;;8.60;5.97;;;;;;;;;;4991023;28;20433;-89
2024/03/04 10:21:23;;;;;;;7.10;6.17;;;;;;;;;;4987004;28;20447;-87
2024/03/04 10:24:10;;;;;;;12.43;7.30;;;;;;;;;;4986041;28;20550;-87
2024/03/04 10:27:17;;;;;;;8.77;6.47;;;;;;;;;;4975288;28;20441;-89
2024/03/04 10:30:06;;;;;;;10.40;6.17;;;;;;;;;;4981837;28;22059;-88
2024/03/04 10:32:52;;;;;;;11.30;6.70;;;;;;;;;;4975509;28;20551;-87
2024/03/04 10:35:34;;;;;;;12.60;7.60;;;;;;;;;;4982012;28;20480;-88
2024/03/04 10:38:15;;;;;;;10.37;7.83;;;;;;;;;;4982577;28;20474;-88
2024/03/04 10:41:02;;;;;;;13.00;8.70;;;;;;;;;;4986079;28;20463;-87
2024/03/04 10:43:40;;;;;;;17.43;9.90;;;;;;;;;;4969748;28;20484;-89
2024/03/04 10:46:23;;;;;;;14.40;9.90;;;;;;;;;;4987685;28;20461;-89
2024/03/04 10:49:11;;;;;;;17.07;9.90;;;;;;;;;;4982677;28;20606;-88
2024/03/04 10:51:50;;;;;;;15.57;9.27;;;;;;;;;;4991478;28;20448;-87
2024/03/04 10:54:31;;;;;;;13.27;8.90;;;;;;;;;;4992004;28;20508;-88
2024/03/04 10:57:08;;;;;;;18.53;12.00;;;;;;;;;;4992818;28;20455;-90
2024/03/04 11:08:07;;;;;;;18.43;12.63;;;;;;;;;;5008202;28;20471;-86
2024/03/04 11:10:57;;;;;;;19.10;12.57;;;;;;;;;;5017514;28;20435;-87
2024/03/04 11:14:04;;;;;;;17.10;11.67;;;;;;;;;;5014980;28;20560;-87
2024/03/04 11:17:23;;;;;;;15.03;10.90;;;;;;;;;;5013660;28;20416;-90
2024/03/04 11:20:46;;;;;;;18.23;12.50;;;;;;;;;;5008361;28;20464;-89
2024/03/04 11:23:39;;;;;;;21.60;15.40;;;;;;;;;;5020692;28;20439;-87
2024/03/04 11:36:41;;;;;;;;;;;;;;;;;;;;;
2024/03/04 11:39:35;;;;;;;14.40;9.43;;;;;;;;;;5000331;28;20466;-88
2024/03/04 11:42:07;;;;;;;11.40;8.83;;;;;;;;;;5012539;28;20459;-87
2024/03/04 11:48:23;;;;;;;12.20;8.60;;;;;;;;;;4991602;28;20456;-88
2024/03/04 11:54:52;;;;;;;10.93;9.30;;;;;;;;;;4988703;28;20485;-87
2024/03/04 11:57:56;;;;;;;12.63;9.00;;;;;;;;;;4986399;28;20452;-90
2024/03/04 12:00:50;;;;;;;15.00;8.47;;;;;;;;;;4974262;28;20509;-89
2024/03/04 12:03:36;;;;;;;13.10;8.10;;;;;;;;;;4990121;28;20494;-88
2024/03/04 12:06:38;;;;;;;8.53;6.60;;;;;;;;;;4972111;28;20422;-88
2024/03/04 12:09:59;;;;;;;8.80;6.20;;;;;;;;;;4944412;29;20440;-87
2024/03/04 12:16:48;;;;;;;6.13;5.30;;;;;;;;;;4935072;29;20434;-88
2024/03/04 12:19:43;;;;;;;;;;;;;;;;;;;;;
2024/03/04 12:29:14;;;;;;;5.30;4.70;;;;;;;;;;4953740;29;20493;-87
2024/03/04 12:35:38;;;;;;;6.03;4.30;;;;;;;;;;4925411;29;20509;-87
2024/03/04 12:38:32;;;;;;;4.40;3.90;;;;;;;;;;4908972;29;20447;-88
2024/03/04 12:47:13;;;;;;;7.73;4.60;;;;;;;;;;4990523;28;20875;-87
2024/03/04 12:49:51;;;;;;;5.40;3.57;;;;;;;;;;4986446;28;20484;-86
2024/03/04 12:52:36;;;;;;;5.47;4.37;;;;;;;;;;4910974;29;20496;-89
2024/03/04 12:55:22;;;;;;;5.23;4.20;;;;;;;;;;4890847;29;20556;-86
2024/03/04 12:58:08;;;;;;;5.60;4.73;;;;;;;;;;4891206;29;20464;-89
2024/03/04 13:01:13;;;;;;;4.43;4.00;;;;;;;;;;4889294;29;20507;-89
2024/03/04 13:03:57;;;;;;;6.00;4.63;;;;;;;;;;4887472;29;21010;-89
2024/03/04 13:06:45;;;;;;;4.40;4.00;;;;;;;;;;4902536;29;20438;-88
2024/03/04 13:09:48;;;;;;;6.03;4.20;;;;;;;;;;4886081;29;20460;-89
2024/03/04 13:12:34;;;;;;;9.47;6.93;;;;;;;;;;4888081;29;20528;-88
2024/03/04 13:15:24;;;;;;;4.43;3.80;;;;;;;;;;4981691;23;20468;-87
2024/03/04 13:23:04;;;;;;;5.10;3.97;;;;;;;;;;5013370;28;20452;-91
2024/03/04 13:50:02;;;;;;;9.20;5.13;;;;;;;;;;4910495;29;20812;-88
2024/03/04 13:53:00;;;;;;;8.03;6.10;;;;;;;;;;4909867;29;20448;-88
2024/03/04 13:59:11;;;;;;;8.03;5.73;;;;;;;;;;5265974;23;20556;-88
2024/03/04 15:16:22;;;;;;;4.40;4.00;;;;;;;;;;5058651;23;20552;-88
2024/03/04 15:19:35;;;;;;;;;;;;;;;;;;;;;
2024/03/04 15:22:39;;;;;;;5.73;4.07;;;;;;;;;;5012610;28;20455;-88
2024/03/04 17:31:05;;;;;;;7.67;6.30;;;;;;;;;;4986197;28;20452;-90
2024/03/04 19:35:45;;;;;;;24.73;14.97;;;;;;;;;;4948965;28;20524;-88
2024/03/04 19:38:56;;;;;;;24.90;15.57;;;;;;;;;;4989731;28;20440;-89
2024/03/04 19:42:20;;;;;;;25.40;15.07;;;;;;;;;;4990918;28;20456;-89
2024/03/04 20:47:26;;;;;;;29.83;18.60;;;;;;;;;;4644593;23;20741;-86
2024/03/04 20:50:24;;;;;;;32.20;19.47;;;;;;;;;;4991057;28;20452;-88
2024/03/04 20:53:27;;;;;;;33.90;20.17;;;;;;;;;;4992288;28;20453;-89
2024/03/04 20:56:16;;;;;;;29.27;17.80;;;;;;;;;;4962145;29;20468;-88
2024/03/04 20:59:07;;;;;;;32.60;20.10;;;;;;;;;;4963814;29;20450;-90
2024/03/04 21:02:02;;;;;;;35.13;19.87;;;;;;;;;;4972650;29;20457;-89
2024/03/04 21:10:24;;;;;;;32.13;19.43;;;;;;;;;;5006938;28;20554;-89
2024/03/04 21:16:04;;;;;;;35.40;20.50;;;;;;;;;;4975195;28;20494;-90
2024/03/04 21:18:54;;;;;;;37.00;21.03;;;;;;;;;;4989116;28;20564;-89
2024/03/04 21:21:50;;;;;;;38.37;21.10;;;;;;;;;;4977907;28;20446;-87
2024/03/04 21:34:23;;;;;;;35.20;21.47;;;;;;;;;;4989614;28;20479;-88
2024/03/04 21:37:30;;;;;;;35.13;19.63;;;;;;;;;;4996069;28;20432;-87
2024/03/04 21:40:20;;;;;;;38.37;21.33;;;;;;;;;;4986911;28;20432;-88
2024/03/04 21:43:11;;;;;;;39.97;21.23;;;;;;;;;;4969052;28;20533;-88
2024/03/04 21:46:06;;;;;;;34.80;21.90;;;;;;;;;;4968705;28;20807;-88
2024/03/04 21:48:54;;;;;;;35.10;21.30;;;;;;;;;;4973999;28;20484;-86
2024/03/04 22:05:36;;;;;;;40.87;23.23;;;;;;;;;;4984813;28;20491;-89
2024/03/04 22:08:17;;;;;;;39.13;22.63;;;;;;;;;;4967016;28;20464;-87
2024/03/04 22:10:59;;;;;;;40.93;23.70;;;;;;;;;;4987873;28;20483;-87
2024/03/04 22:13:35;;;;;;;34.93;20.97;;;;;;;;;;4991437;28;20487;-88
2024/03/04 22:16:33;;;;;;;;;;;;;;;;;;;;;
2024/03/04 22:23:16;;;;;;;36.50;22.33;;;;;;;;;;4960908;28;20474;-88
2024/03/04 22:26:04;;;;;;;35.87;21.80;;;;;;;;;;5619091;23;20559;-89
2024/03/04 22:37:17;;;;;;;39.57;24.07;;;;;;;;;;5043173;23;20494;-89
2024/03/04 22:40:33;;;;;;;47.73;25.90;;;;;;;;;;4999654;28;20458;-89
2024/03/04 22:49:11;;;;;;;43.33;24.30;;;;;;;;;;5028509;23;20501;-87
2024/03/04 22:52:03;;;;;;;48.47;25.40;;;;;;;;;;4991177;28;20446;-89
2024/03/04 23:12:28;;;;;;;44.77;23.80;;;;;;;;;;4967226;29;20412;-88
2024/03/04 23:15:12;;;;;;;41.53;24.17;;;;;;;;;;4972204;28;20549;-88
2024/03/04 23:18:08;;;;;;;41.47;23.97;;;;;;;;;;4970008;28;20528;-87
2024/03/04 23:20:54;;;;;;;43.63;25.47;;;;;;;;;;4958457;29;20961;-89
2024/03/04 23:23:49;;;;;;;;;;;;;;;;;;;;;
2024/03/04 23:55:40;;;;;;;47.87;23.83;;;;;;;;;;4924046;29;20482;-88
2024/03/04 23:58:44;;;;;;;41.20;20.73;;;;;;;;;;4943404;29;20478;-89
